Terminal Aerodrome Forecast
Issued by NWS Boise, ID

Home | Current Version | Previous Version | Text Only | Print | Product List | Glossary On
Versions: 1 2 3 4 5 6 7 8 9 10 11 12 13 14
000
FTUS45 KBOI 031908 AAA
TAFBOI
TAF AMD
KBOI 031908Z 0319/0418 16011KT P6SM SKC
     FM040300 13006KT P6SM FEW150 SCT200=

USA.gov is the U.S. government's official web portal to all federal, state and local government web resources and services.